Time;durP1;ratioP1;P1;durP2;ratioP2;P2;SDS_P1;SDS_P2;PMS_P1;PMS_P2;Temp;Humidity;BMP_temperature;BMP_pressure;BME280_temperature;BME280_humidity;BME280_pressure;Samples;Min_cycle;Max_cycle;Signal;HPM_P1;HPM_P2
2022/11/15 00:02:10;;;;;;;11.23;3.40;;;12.20;99.90;;;;;;5092112;28;20383;-61
2022/11/15 00:04:35;;;;;;;8.95;3.58;;;12.20;99.90;;;;;;5091740;28;20031;-61
2022/11/15 00:07:01;;;;;;;11.50;3.80;;;12.20;99.90;;;;;;5091404;28;20032;-60
2022/11/15 00:09:27;;;;;;;9.90;4.10;;;12.10;99.90;;;;;;5091716;28;20074;-61
2022/11/15 00:11:52;;;;;;;11.05;4.03;;;12.20;99.90;;;;;;5091504;28;20040;-61
2022/11/15 00:14:18;;;;;;;11.32;4.43;;;12.20;99.90;;;;;;5092093;28;20024;-61
2022/11/15 00:16:44;;;;;;;11.63;4.03;;;12.20;99.90;;;;;;5091433;28;20028;-61
2022/11/15 00:19:09;;;;;;;8.88;3.53;;;12.10;99.90;;;;;;5091966;28;20093;-61
2022/11/15 00:21:35;;;;;;;8.88;3.35;;;12.00;99.90;;;;;;5091145;28;20036;-61
2022/11/15 00:24:01;;;;;;;9.02;3.58;;;12.00;99.90;;;;;;5091503;28;20047;-61
2022/11/15 00:26:26;;;;;;;10.52;4.30;;;12.00;99.90;;;;;;5095504;28;20040;-61
2022/11/15 00:28:53;;;;;;;9.95;3.55;;;12.00;99.90;;;;;;5094170;28;20099;-61
2022/11/15 00:31:18;;;;;;;12.00;3.65;;;12.00;99.90;;;;;;5095321;28;20485;-61
2022/11/15 00:33:45;;;;;;;7.22;3.40;;;12.00;99.90;;;;;;5095565;28;20031;-61
2022/11/15 00:36:11;;;;;;;9.95;3.55;;;12.00;99.90;;;;;;5094930;28;20099;-61
2022/11/15 00:38:39;;;;;;;7.38;3.65;;;12.00;99.90;;;;;;5095335;28;20107;-61
2022/11/15 00:41:06;;;;;;;12.27;3.33;;;12.10;99.90;;;;;;5095357;28;20048;-61
2022/11/15 00:43:33;;;;;;;7.68;3.47;;;12.10;99.90;;;;;;5095189;28;20056;-61
2022/11/15 00:45:58;;;;;;;5.75;2.92;;;12.10;99.90;;;;;;5095263;28;20067;-61
2022/11/15 00:48:24;;;;;;;7.97;3.60;;;12.10;99.90;;;;;;5095254;28;20028;-61
2022/11/15 00:50:50;;;;;;;7.22;3.25;;;12.10;99.90;;;;;;5094992;28;20367;-61
2022/11/15 00:53:16;;;;;;;8.60;3.40;;;12.00;99.90;;;;;;5095320;28;20084;-61
2022/11/15 00:55:42;;;;;;;7.10;3.25;;;12.00;99.90;;;;;;5095207;28;20036;-61
2022/11/15 00:58:08;;;;;;;7.93;3.40;;;12.00;99.90;;;;;;5095036;28;20020;-61
2022/11/15 01:00:34;;;;;;;7.72;3.20;;;12.00;99.90;;;;;;5094906;28;20024;-61
2022/11/15 01:03:01;;;;;;;7.82;3.25;;;12.00;99.90;;;;;;5094539;28;20061;-61
2022/11/15 01:05:27;;;;;;;7.60;3.28;;;11.90;99.90;;;;;;5094790;28;20036;-61
2022/11/15 01:07:54;;;;;;;8.07;3.05;;;11.90;99.90;;;;;;5094712;28;20379;-61
2022/11/15 01:10:20;;;;;;;7.40;2.65;;;12.00;99.90;;;;;;5094949;28;20035;-61
2022/11/15 01:12:46;;;;;;;8.00;2.58;;;12.00;99.90;;;;;;5094664;28;20394;-61
2022/11/15 01:15:12;;;;;;;6.68;2.90;;;11.90;99.90;;;;;;5094700;28;20023;-61
2022/11/15 01:17:38;;;;;;;6.15;2.95;;;11.90;99.90;;;;;;5094523;28;20039;-61
2022/11/15 01:20:04;;;;;;;7.95;2.90;;;11.90;99.90;;;;;;5094125;28;20012;-61
2022/11/15 01:22:30;;;;;;;6.20;2.72;;;11.90;99.90;;;;;;5094549;28;20490;-61
2022/11/15 01:24:55;;;;;;;5.43;2.60;;;11.80;99.90;;;;;;5094187;28;20089;-61
2022/11/15 01:27:21;;;;;;;7.63;2.40;;;11.80;99.90;;;;;;5094343;28;20031;-61
2022/11/15 01:29:47;;;;;;;6.65;2.30;;;11.80;99.90;;;;;;5094468;28;20024;-61
2022/11/15 01:32:13;;;;;;;6.80;2.90;;;11.90;99.90;;;;;;5094440;28;20114;-61
2022/11/15 01:34:39;;;;;;;4.90;2.35;;;11.80;99.90;;;;;;5093813;28;20108;-61
2022/11/15 01:37:04;;;;;;;6.53;2.50;;;11.80;99.90;;;;;;5093748;28;20024;-61
2022/11/15 01:39:30;;;;;;;9.70;2.80;;;11.80;99.90;;;;;;5094111;28;20024;-61
2022/11/15 01:41:56;;;;;;;5.28;2.17;;;11.70;99.90;;;;;;5093930;28;20498;-61
2022/11/15 01:44:30;;;;;;;4.97;2.30;;;11.70;99.90;;;;;;5094097;28;20031;-61
2022/11/15 01:46:59;;;;;;;4.72;2.20;;;11.70;99.90;;;;;;5094352;28;20047;-61
2022/11/15 01:49:27;;;;;;;8.38;2.50;;;11.70;99.90;;;;;;5093591;28;20482;-61
2022/11/15 01:51:54;;;;;;;4.32;2.28;;;11.70;99.90;;;;;;5094017;28;20040;-61
2022/11/15 01:54:22;;;;;;;3.35;2.05;;;11.70;99.90;;;;;;5093910;28;20024;-61
2022/11/15 01:56:57;;;;;;;6.72;2.17;;;11.70;99.90;;;;;;5093872;28;20036;-61
2022/11/15 01:59:23;;;;;;;4.70;2.03;;;11.70;99.90;;;;;;5094210;28;20028;-61
2022/11/15 02:01:49;;;;;;;5.75;1.85;;;11.70;99.90;;;;;;5093623;28;20031;-61
2022/11/15 02:04:27;;;;;;;5.95;2.50;;;11.70;99.90;;;;;;5093412;28;20103;-61
2022/11/15 02:06:53;;;;;;;4.00;2.20;;;11.70;99.90;;;;;;5093607;28;20126;-61
2022/11/15 02:09:19;;;;;;;4.55;2.17;;;11.70;99.90;;;;;;5093507;28;20099;-61
2022/11/15 02:11:47;;;;;;;4.63;2.13;;;11.70;99.90;;;;;;5093544;28;20036;-61
2022/11/15 02:14:16;;;;;;;5.15;2.35;;;11.70;99.90;;;;;;5093788;28;20031;-61
2022/11/15 02:17:03;;;;;;;4.93;2.53;;;11.70;99.90;;;;;;5093365;28;20097;-61
2022/11/15 02:19:31;;;;;;;6.93;2.13;;;11.70;99.90;;;;;;5092980;28;20544;-60
2022/11/15 02:22:19;;;;;;;6.25;2.47;;;11.60;99.90;;;;;;5093300;28;20059;-61
2022/11/15 02:25:21;;;;;;;5.47;2.05;;;11.60;99.90;;;;;;5093139;28;20067;-61
2022/11/15 02:28:13;;;;;;;6.47;2.20;;;11.70;99.90;;;;;;5093095;28;20042;-61
2022/11/15 02:30:47;;;;;;;5.95;2.67;;;11.70;99.90;;;;;;5092981;28;20491;-61
2022/11/15 02:33:50;;;;;;;4.90;2.00;;;11.60;99.90;;;;;;5093012;28;20101;-61
2022/11/15 02:36:44;;;;;;;5.13;2.00;;;11.60;99.90;;;;;;5093629;28;20036;-61
2022/11/15 02:39:38;;;;;;;5.00;2.00;;;11.60;99.90;;;;;;5092592;28;20032;-61
2022/11/15 02:45:01;;;;;;;4.57;2.00;;;11.50;99.90;;;;;;5093077;28;20035;-61
2022/11/15 02:47:30;;;;;;;5.50;2.28;;;11.50;99.90;;;;;;5092283;28;20407;-61
2022/11/15 02:50:00;;;;;;;4.35;2.10;;;11.50;99.90;;;;;;5093097;28;20103;-61
2022/11/15 02:52:26;;;;;;;4.25;1.85;;;11.50;99.90;;;;;;5092939;28;20035;-61
2022/11/15 02:54:57;;;;;;;4.30;1.77;;;11.50;99.90;;;;;;5092787;28;20035;-61
2022/11/15 02:57:52;;;;;;;5.25;2.13;;;11.50;99.90;;;;;;5092515;28;20524;-61
2022/11/15 03:00:18;;;;;;;;;;;11.60;99.90;;;;;;5092919;28;20040;-61
2022/11/15 03:03:00;;;;;;;9.90;3.50;;;11.60;99.90;;;;;;5092631;28;20366;-61
2022/11/15 03:05:57;;;;;;;5.18;3.70;;;11.60;99.90;;;;;;5092543;28;20028;-61
2022/11/15 03:08:36;;;;;;;4.35;2.30;;;11.60;99.90;;;;;;5090032;28;20036;-61
2022/11/15 03:11:17;;;;;;;7.60;2.15;;;11.60;99.90;;;;;;5090099;28;20126;-61
2022/11/15 03:14:06;;;;;;;5.32;2.20;;;11.60;99.90;;;;;;5090208;28;20077;-62
2022/11/15 03:16:39;;;;;;;5.60;1.70;;;11.70;99.90;;;;;;5089911;28;20052;-61
2022/11/15 03:19:26;;;;;;;4.85;2.08;;;11.70;99.90;;;;;;5090151;28;20040;-61
2022/11/15 03:21:55;;;;;;;4.22;2.20;;;11.70;99.90;;;;;;5089999;28;20388;-61
2022/11/15 03:24:24;;;;;;;4.65;1.90;;;11.80;99.90;;;;;;5090283;28;20047;-62
2022/11/15 03:26:51;;;;;;;3.70;2.00;;;11.80;99.90;;;;;;5089957;28;20040;-61
2022/11/15 03:29:22;;;;;;;6.07;1.90;;;11.80;99.90;;;;;;5089970;28;20043;-61
2022/11/15 03:31:55;;;;;;;4.25;2.05;;;11.80;99.90;;;;;;5089360;28;20579;-61
2022/11/15 03:34:25;;;;;;;5.32;2.17;;;11.80;99.90;;;;;;5090288;28;20028;-61
2022/11/15 03:36:52;;;;;;;2.65;1.83;;;11.80;99.90;;;;;;5089827;28;20032;-60
2022/11/15 03:39:19;;;;;;;3.85;2.28;;;11.80;99.90;;;;;;5089572;28;20422;-61
2022/11/15 03:42:15;;;;;;;6.15;2.03;;;11.80;99.90;;;;;;5089759;28;20028;-61
2022/11/15 03:44:54;;;;;;;5.35;1.90;;;11.90;99.90;;;;;;5086184;28;20460;-61
2022/11/15 03:47:25;;;;;;;4.55;2.15;;;11.90;99.90;;;;;;5071819;28;20094;-61
2022/11/15 03:49:55;;;;;;;3.30;1.92;;;11.90;99.90;;;;;;5071714;28;20016;-61
2022/11/15 03:52:22;;;;;;;3.45;1.67;;;11.90;99.90;;;;;;5071582;28;20032;-61
2022/11/15 03:54:53;;;;;;;7.25;1.95;;;11.90;99.90;;;;;;5072079;28;20024;-62
2022/11/15 03:57:19;;;;;;;7.85;2.28;;;11.90;99.90;;;;;;5071437;28;20020;-61
2022/11/15 03:59:45;;;;;;;4.50;1.98;;;11.90;99.90;;;;;;5074179;28;20029;-61
2022/11/15 04:02:12;;;;;;;4.05;2.15;;;11.90;99.90;;;;;;5078111;28;20027;-61
2022/11/15 04:04:37;;;;;;;4.75;1.98;;;11.90;99.90;;;;;;5078222;28;20456;-61
2022/11/15 04:07:03;;;;;;;5.70;2.00;;;11.90;99.90;;;;;;5078683;28;20093;-61
2022/11/15 04:09:29;;;;;;;3.70;1.95;;;12.00;99.90;;;;;;5078065;28;20035;-61
2022/11/15 04:11:55;;;;;;;4.93;1.83;;;11.90;99.90;;;;;;5077985;28;20111;-61
2022/11/15 04:14:20;;;;;;;5.03;2.17;;;11.90;99.90;;;;;;5077906;28;20028;-61
2022/11/15 04:16:46;;;;;;;4.72;2.05;;;11.80;99.90;;;;;;5078367;28;20032;-61
2022/11/15 04:24:40;;;;;;;3.88;1.95;;;11.90;99.90;;;;;;5082546;28;19915;-61
2022/11/15 04:27:05;;;;;;;5.90;2.20;;;12.00;99.90;;;;;;5098248;28;20028;-61
2022/11/15 04:29:34;;;;;;;6.95;2.17;;;12.00;99.90;;;;;;5097936;28;20028;-61
2022/11/15 04:32:04;;;;;;;3.97;2.00;;;12.00;99.90;;;;;;5098126;28;20169;-61
2022/11/15 04:34:30;;;;;;;3.97;1.92;;;12.00;99.90;;;;;;5097962;28;20024;-61
2022/11/15 04:37:15;;;;;;;4.10;1.90;;;12.00;99.90;;;;;;5098683;28;20038;-61
2022/11/15 04:39:42;;;;;;;4.57;1.98;;;12.00;99.90;;;;;;5098135;28;20080;-61
2022/11/15 04:42:09;;;;;;;3.45;2.00;;;12.00;99.90;;;;;;5098135;28;20044;-61
2022/11/15 04:44:35;;;;;;;3.70;2.10;;;12.00;99.90;;;;;;5098167;28;20044;-61
2022/11/15 04:47:01;;;;;;;4.05;2.30;;;12.00;99.90;;;;;;5098198;28;20077;-61
2022/11/15 04:49:26;;;;;;;4.95;2.03;;;12.00;99.90;;;;;;5097972;28;20439;-61
2022/11/15 04:51:52;;;;;;;5.50;2.20;;;12.00;99.90;;;;;;5098335;28;20119;-61
2022/11/15 04:54:18;;;;;;;4.03;2.30;;;12.00;99.90;;;;;;5098054;28;20043;-61
2022/11/15 04:56:44;;;;;;;2.97;2.00;;;12.00;99.90;;;;;;5097631;28;20089;-61
2022/11/15 04:59:10;;;;;;;5.25;2.30;;;12.00;99.90;;;;;;5098087;28;20023;-61
2022/11/15 05:01:35;;;;;;;4.07;1.85;;;12.00;99.90;;;;;;5097888;28;20013;-61
2022/11/15 05:04:19;;;;;;;5.20;2.15;;;12.00;99.90;;;;;;5097952;28;20482;-61
2022/11/15 05:06:46;;;;;;;3.88;2.20;;;12.00;99.90;;;;;;5097946;28;20024;-61
2022/11/15 05:09:13;;;;;;;4.63;2.28;;;12.00;99.90;;;;;;5096589;28;20406;-61
2022/11/15 05:11:40;;;;;;;5.15;2.28;;;12.00;99.90;;;;;;5095319;28;20103;-61
2022/11/15 05:14:05;;;;;;;4.72;2.28;;;12.00;99.90;;;;;;5094709;28;20089;-61
2022/11/15 05:16:31;;;;;;;4.43;2.50;;;12.10;99.90;;;;;;5094756;28;20028;-61
2022/11/15 05:18:57;;;;;;;4.65;2.40;;;12.00;99.90;;;;;;5094934;28;20020;-61
2022/11/15 05:21:22;;;;;;;5.20;2.28;;;12.00;99.90;;;;;;5094514;28;20104;-61
2022/11/15 05:23:48;;;;;;;5.05;2.38;;;12.00;99.90;;;;;;5094519;28;20028;-61
2022/11/15 05:26:16;;;;;;;3.53;2.10;;;12.00;99.90;;;;;;5093804;28;20153;-61
2022/11/15 05:28:41;;;;;;;5.75;2.30;;;12.00;99.90;;;;;;5094498;28;20031;-61
2022/11/15 05:31:13;;;;;;;4.07;2.22;;;11.90;99.90;;;;;;5094668;28;20402;-61
2022/11/15 05:33:43;;;;;;;4.22;2.35;;;11.90;99.90;;;;;;5094454;28;20113;-61
2022/11/15 05:36:17;;;;;;;4.32;2.15;;;11.90;99.90;;;;;;5094191;28;20502;-61
2022/11/15 05:38:44;;;;;;;6.22;2.30;;;11.90;99.90;;;;;;5094212;28;20020;-61
2022/11/15 05:41:10;;;;;;;3.78;2.33;;;11.90;99.90;;;;;;5093869;28;20107;-61
2022/11/15 05:43:40;;;;;;;5.70;2.30;;;12.10;99.90;;;;;;5093962;28;20048;-61
2022/11/15 05:46:05;;;;;;;4.57;2.75;;;12.10;99.90;;;;;;5094103;28;20508;-61
2022/11/15 05:48:34;;;;;;;4.57;2.25;;;12.10;99.90;;;;;;5094036;28;20103;-61
2022/11/15 05:51:01;;;;;;;5.70;2.70;;;12.10;99.90;;;;;;5094354;28;20043;-61
2022/11/15 05:53:27;;;;;;;3.53;2.30;;;12.10;99.90;;;;;;5093805;28;20036;-61
2022/11/15 05:55:52;;;;;;;3.70;2.33;;;12.20;99.90;;;;;;5093551;28;20043;-61
2022/11/15 05:58:20;;;;;;;5.50;2.50;;;12.20;99.90;;;;;;5093910;28;20031;-61
2022/11/15 06:00:46;;;;;;;3.10;2.17;;;12.20;99.90;;;;;;5093624;28;20093;-61
2022/11/15 06:03:13;;;;;;;4.72;2.20;;;12.20;99.90;;;;;;5093889;28;20495;-61
2022/11/15 06:05:39;;;;;;;4.38;2.30;;;12.20;99.90;;;;;;5094203;28;20412;-61
2022/11/15 06:08:05;;;;;;;4.95;2.30;;;12.30;99.90;;;;;;5093510;28;20031;-61
2022/11/15 06:10:32;;;;;;;4.97;2.40;;;12.20;99.90;;;;;;5093197;28;20024;-61
2022/11/15 06:12:59;;;;;;;3.58;2.40;;;12.30;99.90;;;;;;5093499;28;20032;-61
2022/11/15 06:15:25;;;;;;;3.88;2.35;;;12.30;99.90;;;;;;5093774;28;20028;-61
2022/11/15 06:17:50;;;;;;;4.10;2.22;;;12.30;99.90;;;;;;5092577;28;20028;-61
2022/11/15 06:20:16;;;;;;;4.45;2.30;;;12.40;99.90;;;;;;5093290;28;20031;-61
2022/11/15 06:22:42;;;;;;;4.38;2.60;;;12.40;99.90;;;;;;5091399;28;20035;-61
2022/11/15 06:25:08;;;;;;;4.78;2.50;;;12.40;99.90;;;;;;5092864;28;20039;-61
2022/11/15 06:27:34;;;;;;;5.25;2.60;;;12.30;99.90;;;;;;5093383;28;20032;-60
2022/11/15 06:29:59;;;;;;;4.47;2.58;;;12.40;99.90;;;;;;5093132;28;20316;-61
2022/11/15 06:32:25;;;;;;;4.97;2.30;;;12.40;99.90;;;;;;5091774;28;20054;-61
2022/11/15 06:34:51;;;;;;;5.65;2.47;;;12.50;99.90;;;;;;5091684;28;20024;-61
2022/11/15 06:37:16;;;;;;;4.13;2.30;;;12.50;99.90;;;;;;5092964;28;20021;-61
2022/11/15 06:39:42;;;;;;;6.40;2.45;;;12.50;99.90;;;;;;5092837;28;20056;-61
2022/11/15 06:42:08;;;;;;;6.18;2.58;;;12.60;99.90;;;;;;5092755;28;20063;-61
2022/11/15 06:44:34;;;;;;;4.07;2.50;;;12.60;99.90;;;;;;5093067;28;20024;-61
2022/11/15 06:47:00;;;;;;;4.35;2.50;;;12.60;99.90;;;;;;5093024;28;20027;-61
2022/11/15 06:49:26;;;;;;;5.43;2.38;;;12.60;99.90;;;;;;5092971;28;20024;-61
2022/11/15 06:51:51;;;;;;;3.03;2.30;;;12.60;99.90;;;;;;5093019;28;20030;-61
2022/11/15 06:54:17;;;;;;;3.92;2.53;;;12.70;99.90;;;;;;5092419;28;20078;-61
2022/11/15 06:56:43;;;;;;;4.60;2.70;;;12.80;99.90;;;;;;5093135;28;20024;-63
2022/11/15 06:59:08;;;;;;;4.88;2.78;;;12.70;99.90;;;;;;5092639;28;20024;-61
2022/11/15 07:01:34;;;;;;;5.45;2.50;;;12.70;99.90;;;;;;5092254;28;20027;-61
2022/11/15 07:04:00;;;;;;;5.20;2.60;;;12.80;99.90;;;;;;5091121;28;20096;-60
2022/11/15 07:06:25;;;;;;;6.57;2.53;;;12.70;99.90;;;;;;5092596;28;20073;-60
2022/11/15 07:08:51;;;;;;;4.32;2.50;;;12.70;99.90;;;;;;5092628;28;20024;-59
2022/11/15 07:11:16;;;;;;;5.32;2.60;;;12.70;99.90;;;;;;5092298;28;20020;-60
2022/11/15 07:13:42;;;;;;;3.75;2.40;;;12.80;99.90;;;;;;5092584;28;20032;-60
2022/11/15 07:16:10;;;;;;;6.78;2.60;;;12.80;99.90;;;;;;5092440;28;20027;-60
2022/11/15 07:18:37;;;;;;;5.45;2.80;;;12.80;99.90;;;;;;5092739;28;20035;-60
2022/11/15 07:21:04;;;;;;;4.57;2.60;;;12.80;99.90;;;;;;5092185;28;20020;-60
2022/11/15 07:23:30;;;;;;;5.45;2.97;;;12.90;99.90;;;;;;5091834;28;20532;-59
2022/11/15 07:25:59;;;;;;;4.38;2.50;;;12.90;99.90;;;;;;5091964;28;20107;-60
2022/11/15 07:28:26;;;;;;;5.43;2.50;;;12.90;99.90;;;;;;5092245;28;20055;-60
2022/11/15 07:30:52;;;;;;;4.28;2.72;;;12.90;99.90;;;;;;5091322;28;20091;-59
2022/11/15 07:33:18;;;;;;;4.18;2.50;;;12.90;99.90;;;;;;5091399;28;20538;-60
2022/11/15 07:35:46;;;;;;;7.40;2.50;;;12.90;99.90;;;;;;5090361;28;20020;-60
2022/11/15 07:38:12;;;;;;;8.70;3.20;;;13.00;99.90;;;;;;5090994;28;20027;-60
2022/11/15 07:40:37;;;;;;;4.18;2.67;;;13.20;99.90;;;;;;5091161;28;20407;-60
2022/11/15 07:43:05;;;;;;;7.95;3.40;;;13.20;99.90;;;;;;5091705;28;20396;-60
2022/11/15 07:45:35;;;;;;;15.98;3.95;;;13.30;99.90;;;;;;5091763;28;20024;-60
2022/11/15 07:48:01;;;;;;;11.15;3.35;;;13.30;99.90;;;;;;5091176;28;20031;-61
2022/11/15 07:50:30;;;;;;;5.50;2.47;;;13.30;99.90;;;;;;5091677;28;20024;-60
2022/11/15 07:52:58;;;;;;;3.35;2.50;;;13.30;99.90;;;;;;5090659;28;20028;-60
2022/11/15 07:55:25;;;;;;;6.45;2.92;;;13.40;99.90;;;;;;5090925;28;20099;-60
2022/11/15 07:57:51;;;;;;;7.70;2.80;;;13.40;99.90;;;;;;5092181;28;20031;-59
2022/11/15 08:00:17;;;;;;;4.55;3.05;;;13.50;99.90;;;;;;5091387;28;20024;-60
2022/11/15 08:02:43;;;;;;;5.60;2.78;;;13.40;99.90;;;;;;5091467;28;20020;-59
2022/11/15 08:05:09;;;;;;;4.72;2.70;;;13.40;99.90;;;;;;5090768;28;20028;-60
2022/11/15 08:07:34;;;;;;;4.50;2.88;;;13.30;99.90;;;;;;5090817;28;20421;-60
2022/11/15 08:10:01;;;;;;;5.13;2.90;;;13.30;99.90;;;;;;5091330;28;20046;-60
2022/11/15 08:12:29;;;;;;;4.65;2.70;;;13.40;99.90;;;;;;5091236;28;20043;-60
2022/11/15 08:14:56;;;;;;;6.80;3.08;;;13.40;99.90;;;;;;5091668;28;20482;-60
2022/11/15 08:17:23;;;;;;;8.10;3.25;;;13.40;99.90;;;;;;5091606;28;20098;-60
2022/11/15 08:19:48;;;;;;;6.75;3.00;;;13.40;99.90;;;;;;5091266;28;20493;-60
2022/11/15 08:22:14;;;;;;;6.50;3.25;;;13.40;99.90;;;;;;5091410;28;20028;-60
2022/11/15 08:24:40;;;;;;;6.32;2.83;;;13.40;99.90;;;;;;5091412;28;20036;-60
2022/11/15 08:27:14;;;;;;;3.67;2.83;;;13.40;99.90;;;;;;5092043;28;20016;-61
2022/11/15 08:29:41;;;;;;;4.43;3.10;;;13.50;99.90;;;;;;5088069;28;20024;-61
2022/11/15 08:32:07;;;;;;;5.30;3.20;;;13.50;99.90;;;;;;5090516;28;20036;-61
2022/11/15 08:34:33;;;;;;;4.13;3.13;;;13.60;99.90;;;;;;5090371;28;20103;-61
2022/11/15 08:36:58;;;;;;;5.43;2.80;;;13.70;99.90;;;;;;5090707;28;20120;-61
2022/11/15 08:39:24;;;;;;;4.20;2.83;;;13.80;99.90;;;;;;5090805;28;20066;-61
2022/11/15 08:41:50;;;;;;;5.28;2.90;;;13.90;99.90;;;;;;5090870;28;20040;-61
2022/11/15 08:44:16;;;;;;;7.00;3.58;;;13.90;99.90;;;;;;5091089;28;20031;-61
2022/11/15 08:46:41;;;;;;;21.63;4.82;;;13.90;99.90;;;;;;5093646;28;20124;-61
2022/11/15 08:49:07;;;;;;;6.95;3.25;;;13.90;99.90;;;;;;5094314;28;20526;-61
2022/11/15 08:51:33;;;;;;;6.35;3.13;;;14.00;99.90;;;;;;5094612;28;20458;-61
2022/11/15 08:53:58;;;;;;;5.57;3.63;;;14.00;99.90;;;;;;5094887;28;20020;-61
2022/11/15 08:56:24;;;;;;;7.10;3.95;;;14.00;99.90;;;;;;5094662;28;20035;-60
2022/11/15 08:58:50;;;;;;;5.15;3.13;;;14.10;99.90;;;;;;5094178;28;20066;-61
2022/11/15 09:01:18;;;;;;;5.78;3.30;;;14.20;99.90;;;;;;5094184;28;20467;-61
2022/11/15 09:03:43;;;;;;;5.05;2.90;;;14.30;99.90;;;;;;5094401;28;20047;-61
2022/11/15 09:06:09;;;;;;;6.90;3.15;;;14.30;99.90;;;;;;5094701;28;20024;-61
2022/11/15 09:08:35;;;;;;;6.75;3.30;;;14.20;99.90;;;;;;5094344;28;20046;-61
2022/11/15 09:11:08;;;;;;;3.80;3.25;;;14.20;99.90;;;;;;5093940;28;20028;-61
2022/11/15 09:13:36;;;;;;;5.53;3.20;;;14.30;99.90;;;;;;5094890;28;20498;-61
2022/11/15 09:16:03;;;;;;;6.07;3.20;;;14.30;99.90;;;;;;5094278;28;20024;-60
2022/11/15 09:18:29;;;;;;;8.23;3.90;;;14.30;99.90;;;;;;5093836;28;20493;-61
2022/11/15 09:20:56;;;;;;;6.60;3.65;;;14.30;99.90;;;;;;5094003;28;20471;-60
2022/11/15 09:23:23;;;;;;;6.68;3.42;;;14.30;99.90;;;;;;5093945;28;20024;-61
2022/11/15 09:25:49;;;;;;;6.38;3.40;;;14.20;99.90;;;;;;5094355;28;20020;-61
2022/11/15 09:28:15;;;;;;;5.78;3.40;;;14.30;99.90;;;;;;5093502;28;20085;-60
2022/11/15 09:30:41;;;;;;;4.50;3.30;;;14.30;99.90;;;;;;5093676;28;20028;-61
2022/11/15 09:33:08;;;;;;;4.85;3.35;;;14.40;99.90;;;;;;5093896;28;20564;-60
2022/11/15 09:35:34;;;;;;;5.40;3.40;;;14.50;99.90;;;;;;5093342;28;20028;-61
2022/11/15 09:38:00;;;;;;;9.07;5.05;;;14.50;99.90;;;;;;5092846;28;20534;-61
2022/11/15 09:40:26;;;;;;;6.68;4.03;;;14.50;99.90;;;;;;5093969;28;20063;-61
2022/11/15 09:43:06;;;;;;;5.85;3.80;;;14.50;99.90;;;;;;5093526;28;20052;-61
2022/11/15 09:46:08;;;;;;;6.93;4.18;;;14.50;99.90;;;;;;5093876;28;20358;-61
2022/11/15 09:48:59;;;;;;;6.78;3.50;;;14.60;99.90;;;;;;5093689;28;20020;-61
2022/11/15 09:51:34;;;;;;;7.32;3.75;;;14.80;99.90;;;;;;5093299;28;20407;-62
2022/11/15 09:54:08;;;;;;;5.15;3.47;;;15.00;99.90;;;;;;5094059;28;20020;-61
2022/11/15 09:56:41;;;;;;;6.00;3.97;;;15.20;99.90;;;;;;5094049;28;20544;-61
2022/11/15 09:59:25;;;;;;;4.93;4.00;;;15.30;99.90;;;;;;5093329;28;20024;-61
2022/11/15 10:02:16;;;;;;;4.82;3.65;;;15.40;99.90;;;;;;5093212;28;20293;-60
2022/11/15 10:04:42;;;;;;;6.97;4.00;;;15.50;99.90;;;;;;5093204;28;20081;-61
2022/11/15 10:07:18;;;;;;;7.00;4.07;;;15.50;99.90;;;;;;5092730;28;20028;-61
2022/11/15 10:10:11;;;;;;;5.10;3.60;;;15.70;99.90;;;;;;5093122;28;20020;-61
2022/11/15 10:12:37;;;;;;;4.53;3.38;;;16.00;99.90;;;;;;5093767;28;20059;-61
2022/11/15 10:15:11;;;;;;;6.97;3.50;;;16.00;99.90;;;;;;5093490;28;20016;-61
2022/11/15 10:17:45;;;;;;;5.68;3.72;;;15.90;99.90;;;;;;5093096;28;20031;-61
2022/11/15 10:20:27;;;;;;;5.90;3.65;;;15.90;99.90;;;;;;5093267;28;20036;-61
2022/11/15 10:23:06;;;;;;;6.60;3.95;;;15.80;99.90;;;;;;5091971;28;20028;-62
2022/11/15 10:25:34;;;;;;;5.05;3.70;;;15.90;99.90;;;;;;5093075;28;20116;-61
2022/11/15 10:28:09;;;;;;;5.88;3.85;;;16.10;99.90;;;;;;5093116;28;20077;-61
2022/11/15 10:30:41;;;;;;;4.85;3.80;;;16.20;99.90;;;;;;5092661;28;20093;-61
2022/11/15 10:33:35;;;;;;;8.65;3.92;;;16.30;99.90;;;;;;5093131;28;20036;-62
2022/11/15 10:36:09;;;;;;;8.55;3.72;;;16.40;99.90;;;;;;5092973;28;20482;-61
2022/11/15 10:38:50;;;;;;;5.65;4.20;;;16.50;99.90;;;;;;5093025;28;20085;-62
2022/11/15 10:41:29;;;;;;;4.78;3.75;;;16.50;99.90;;;;;;5092941;28;20103;-61
2022/11/15 10:44:07;;;;;;;6.15;3.47;;;16.50;99.90;;;;;;5092794;28;20044;-62
2022/11/15 10:46:34;;;;;;;6.35;3.85;;;16.70;99.90;;;;;;5092796;28;20202;-61
2022/11/15 10:49:15;;;;;;;4.65;3.47;;;16.70;99.90;;;;;;5093155;28;20024;-62
2022/11/15 10:51:46;;;;;;;4.25;3.80;;;16.80;99.90;;;;;;5093004;28;20024;-61
2022/11/15 10:54:15;;;;;;;5.10;3.78;;;16.80;99.90;;;;;;5093527;28;20065;-61
2022/11/15 10:56:42;;;;;;;5.05;3.33;;;16.90;99.90;;;;;;5094022;28;20038;-61
2022/11/15 10:59:16;;;;;;;4.57;3.55;;;16.80;99.90;;;;;;5094158;28;20200;-62
2022/11/15 11:01:47;;;;;;;5.75;3.60;;;16.90;99.90;;;;;;5094243;28;20020;-61
2022/11/15 11:04:12;;;;;;;6.18;3.20;;;16.90;99.90;;;;;;5092587;28;20617;-61
2022/11/15 11:06:51;;;;;;;6.55;3.10;;;16.80;99.90;;;;;;5092119;28;20016;-60
2022/11/15 11:09:32;;;;;;;4.30;3.20;;;16.80;99.90;;;;;;5091442;28;20124;-61
2022/11/15 11:11:59;;;;;;;3.38;2.83;;;16.90;99.90;;;;;;5092474;28;20043;-60
2022/11/15 11:14:33;;;;;;;3.55;2.80;;;17.00;99.90;;;;;;5089225;28;20073;-61
2022/11/15 11:17:14;;;;;;;3.65;2.65;;;17.20;99.90;;;;;;5091448;28;20028;-61
2022/11/15 11:20:04;;;;;;;8.50;3.17;;;17.30;99.90;;;;;;5092302;28;20486;-61
2022/11/15 11:22:39;;;;;;;3.63;2.30;;;17.40;99.90;;;;;;5092243;28;20032;-61
2022/11/15 11:25:28;;;;;;;3.97;1.98;;;17.40;99.90;;;;;;5092072;28;20024;-61
2022/11/15 11:28:05;;;;;;;4.15;2.30;;;17.30;99.90;;;;;;5091578;28;20120;-61
2022/11/15 11:30:39;;;;;;;3.67;1.98;;;17.30;99.90;;;;;;5092027;28;20043;-61
2022/11/15 11:33:33;;;;;;;5.07;2.55;;;17.10;99.90;;;;;;5092106;28;20047;-60
2022/11/15 11:36:23;;;;;;;3.15;1.77;;;17.00;99.90;;;;;;5091434;28;20100;-61
2022/11/15 11:39:05;;;;;;;6.68;2.10;;;16.90;99.90;;;;;;5091328;28;20028;-61
2022/11/15 11:41:31;;;;;;;2.63;1.50;;;16.90;99.90;;;;;;5091447;28;20559;-61
2022/11/15 11:44:20;;;;;;;3.75;1.33;;;16.90;99.90;;;;;;5091678;28;20036;-60
2022/11/15 11:46:59;;;;;;;4.30;1.33;;;17.00;99.90;;;;;;5091127;28;20107;-60
2022/11/15 11:49:36;;;;;;;3.80;1.40;;;17.10;99.90;;;;;;5092086;28;20031;-61
2022/11/15 11:52:52;;;;;;;6.88;1.60;;;17.20;99.90;;;;;;5090738;28;20060;-61
2022/11/15 11:55:37;;;;;;;2.78;1.40;;;17.30;99.90;;;;;;5089818;28;20036;-62
2022/11/15 11:58:40;;;;;;;5.32;1.42;;;17.30;99.90;;;;;;5089020;28;20364;-61
2022/11/15 12:01:11;;;;;;;5.43;1.60;;;17.30;99.90;;;;;;5088951;28;20123;-61
2022/11/15 12:04:00;;;;;;;3.72;1.40;;;17.30;99.90;;;;;;5089560;28;20029;-61
2022/11/15 12:06:55;;;;;;;3.88;1.40;;;17.30;99.90;;;;;;5089370;28;20112;-61
2022/11/15 12:09:32;;;;;;;4.70;1.40;;;17.30;99.90;;;;;;5009389;28;20543;-61
2022/11/15 12:12:32;;;;;;;5.07;1.60;;;17.40;99.90;;;;;;5008941;28;20050;-61
2022/11/15 12:15:10;;;;;;;3.95;1.60;;;17.30;99.90;;;;;;5009683;28;20113;-61
2022/11/15 12:17:38;;;;;;;4.38;1.40;;;17.20;99.90;;;;;;5009658;28;20108;-61
2022/11/15 12:20:15;;;;;;;6.68;1.52;;;17.10;99.90;;;;;;5009802;28;20030;-61
2022/11/15 12:22:53;;;;;;;8.60;1.70;;;17.00;99.90;;;;;;5013830;28;20535;-61
2022/11/15 12:25:29;;;;;;;6.05;1.65;;;17.00;99.90;;;;;;5023144;28;20045;-61
2022/11/15 12:28:03;;;;;;;5.93;1.60;;;16.90;99.90;;;;;;5032657;28;20066;-61
2022/11/15 12:30:49;;;;;;;4.95;1.80;;;16.90;99.90;;;;;;5033167;28;20044;-61
2022/11/15 12:33:43;;;;;;;5.72;2.08;;;16.80;99.90;;;;;;5033032;28;20050;-61
2022/11/15 12:36:10;;;;;;;;;;;16.70;99.90;;;;;;5033317;28;20053;-61
2022/11/15 12:38:51;;;;;;;7.63;1.60;;;16.70;99.90;;;;;;5032908;28;19905;-61
2022/11/15 12:41:18;;;;;;;7.78;1.80;;;16.60;99.90;;;;;;5032211;28;20473;-61
2022/11/15 12:43:46;;;;;;;4.93;1.60;;;16.70;99.90;;;;;;5033150;28;20563;-61
2022/11/15 12:46:32;;;;;;;6.03;1.70;;;16.70;99.90;;;;;;5062810;28;20503;-61
2022/11/15 12:49:12;;;;;;;6.32;1.70;;;16.80;99.90;;;;;;5075551;28;20195;-61
2022/11/15 12:51:47;;;;;;;4.40;1.58;;;16.80;99.90;;;;;;5075487;28;20036;-61
2022/11/15 12:54:22;;;;;;;5.30;1.40;;;16.80;99.90;;;;;;5075257;28;20388;-61
2022/11/15 12:57:03;;;;;;;5.78;1.30;;;17.00;99.90;;;;;;5074928;28;20043;-61
2022/11/15 13:00:13;;;;;;;4.50;1.63;;;17.10;99.90;;;;;;5075141;28;20024;-61
2022/11/15 13:02:45;;;;;;;5.07;1.90;;;17.10;99.90;;;;;;5094110;28;20047;-62
2022/11/15 13:05:18;;;;;;;10.68;5.82;;;17.00;99.90;;;;;;5093436;28;20032;-61
2022/11/15 13:07:44;;;;;;;7.43;4.30;;;17.10;99.90;;;;;;5076072;28;20437;-62
2022/11/15 13:10:12;;;;;;;11.10;6.38;;;17.00;99.90;;;;;;5091990;28;20715;-61
2022/11/15 13:12:40;;;;;;;12.93;6.70;;;16.90;99.90;;;;;;5092650;28;20059;-61
2022/11/15 13:15:12;;;;;;;8.50;2.90;;;17.00;99.90;;;;;;5092888;28;20051;-61
2022/11/15 13:17:40;;;;;;;12.30;9.75;;;16.90;99.90;;;;;;5093186;28;20036;-61